Time;durP1;ratioP1;P1;durP2;ratioP2;P2;SDS_P1;SDS_P2;PMS_P1;PMS_P2;Temp;Humidity;BMP_temperature;BMP_pressure;BME280_temperature;BME280_humidity;BME280_pressure;Samples;Min_cycle;Max_cycle;Signal;HPM_P1;HPM_P2
2022/01/18 00:01:50;;;;;;;24.10;5.37;;;;;;;;;;5058815;28;20179;-65
2022/01/18 00:04:16;;;;;;;27.37;5.53;;;;;;;;;;5043057;28;20201;-65
2022/01/18 00:06:48;;;;;;;22.07;6.00;;;;;;;;;;5042914;28;20190;-64
2022/01/18 00:09:15;;;;;;;23.37;5.30;;;;;;;;;;5041860;28;20197;-65
2022/01/18 00:11:49;;;;;;;37.10;8.20;;;;;;;;;;5041294;28;20211;-64
2022/01/18 00:14:27;;;;;;;36.10;10.17;;;;;;;;;;5042493;28;20662;-65
2022/01/18 00:17:04;;;;;;;40.60;14.20;;;;;;;;;;5043552;28;20167;-65
2022/01/18 00:19:30;;;;;;;27.27;7.70;;;;;;;;;;5043376;28;20157;-64
2022/01/18 00:22:10;;;;;;;28.00;6.30;;;;;;;;;;5042150;28;20266;-64
2022/01/18 00:24:36;;;;;;;21.77;5.83;;;;;;;;;;5042077;28;20689;-64
2022/01/18 00:27:08;;;;;;;21.80;7.37;;;;;;;;;;5041789;28;20237;-64
2022/01/18 00:29:37;;;;;;;24.53;8.10;;;;;;;;;;5041326;28;20199;-65
2022/01/18 00:32:14;;;;;;;18.47;6.30;;;;;;;;;;5042446;28;20239;-64
2022/01/18 00:34:42;;;;;;;27.70;6.77;;;;;;;;;;5041886;28;20313;-65
2022/01/18 00:39:36;;;;;;;31.47;6.30;;;;;;;;;;5043400;28;20179;-65
2022/01/18 00:42:02;;;;;;;36.73;6.43;;;;;;;;;;5043164;28;20641;-65
2022/01/18 00:44:28;;;;;;;24.60;5.30;;;;;;;;;;5040775;28;20675;-65
2022/01/18 00:46:54;;;;;;;31.90;6.00;;;;;;;;;;5042481;28;20257;-64
2022/01/18 00:49:20;;;;;;;21.97;5.37;;;;;;;;;;5040500;28;20183;-64
2022/01/18 00:51:53;;;;;;;11.70;3.77;;;;;;;;;;5042655;28;20207;-64
2022/01/18 00:54:23;;;;;;;21.20;4.37;;;;;;;;;;5043022;28;20229;-64
2022/01/18 00:56:52;;;;;;;22.07;4.40;;;;;;;;;;5041406;28;20176;-64
2022/01/18 00:59:19;;;;;;;21.73;5.20;;;;;;;;;;5042096;28;20199;-64
2022/01/18 01:01:45;;;;;;;21.43;4.50;;;;;;;;;;5042530;28;20306;-65
2022/01/18 01:04:11;;;;;;;17.60;4.53;;;;;;;;;;5042493;28;20211;-64
2022/01/18 01:06:37;;;;;;;27.90;4.80;;;;;;;;;;5042488;28;20558;-64
2022/01/18 01:09:05;;;;;;;13.77;4.50;;;;;;;;;;5040580;28;20650;-65
2022/01/18 01:11:36;;;;;;;20.57;4.13;;;;;;;;;;5041859;28;20313;-65
2022/01/18 01:14:02;;;;;;;22.33;4.40;;;;;;;;;;5041743;28;20564;-64
2022/01/18 01:43:23;;;;;;;21.00;5.03;;;;;;;;;;5044336;28;20216;-65
2022/01/18 01:45:51;;;;;;;24.27;5.20;;;;;;;;;;5042856;28;20175;-65
2022/01/18 01:48:18;;;;;;;21.47;4.73;;;;;;;;;;5042432;28;20183;-65
2022/01/18 01:50:51;;;;;;;20.23;5.30;;;;;;;;;;5045318;28;20229;-64
2022/01/18 01:53:18;;;;;;;21.13;6.03;;;;;;;;;;5045327;28;20193;-64
2022/01/18 01:55:45;;;;;;;22.57;6.47;;;;;;;;;;5042964;28;20178;-65
2022/01/18 01:58:11;;;;;;;24.17;6.07;;;;;;;;;;5045819;28;20221;-65
2022/01/18 02:01:03;;;;;;;22.80;5.47;;;;;;;;;;5044936;28;20175;-64
2022/01/18 02:03:29;;;;;;;26.17;6.00;;;;;;;;;;5040040;28;20257;-65
2022/01/18 02:05:55;;;;;;;28.27;6.07;;;;;;;;;;5044053;28;20175;-65
2022/01/18 02:08:21;;;;;;;22.83;5.97;;;;;;;;;;5045042;28;20258;-65
2022/01/18 02:10:47;;;;;;;27.47;5.90;;;;;;;;;;5045095;28;20614;-65
2022/01/18 02:13:16;;;;;;;30.73;7.07;;;;;;;;;;5044106;28;20214;-64
2022/01/18 02:16:12;;;;;;;30.37;7.57;;;;;;;;;;5043419;28;20187;-65
2022/01/18 02:24:01;;;;;;;30.53;7.67;;;;;;;;;;5045489;28;20214;-66
2022/01/18 02:26:27;;;;;;;25.70;6.73;;;;;;;;;;5044794;28;20175;-63
2022/01/18 02:28:53;;;;;;;29.17;6.23;;;;;;;;;;5046276;28;20239;-65
2022/01/18 02:31:19;;;;;;;20.30;4.77;;;;;;;;;;5043673;28;20186;-65
2022/01/18 02:33:45;;;;;;;24.43;5.53;;;;;;;;;;5045614;28;20195;-64
2022/01/18 02:36:11;;;;;;;21.00;4.43;;;;;;;;;;5045339;28;20248;-64
2022/01/18 02:38:37;;;;;;;19.90;4.67;;;;;;;;;;5039177;28;20580;-65
2022/01/18 02:41:05;;;;;;;18.57;4.67;;;;;;;;;;5040970;28;20179;-65
2022/01/18 02:43:47;;;;;;;18.07;4.00;;;;;;;;;;5045373;28;20250;-65
2022/01/18 02:46:12;;;;;;;18.57;4.13;;;;;;;;;;5045952;28;20173;-65
2022/01/18 02:48:39;;;;;;;21.07;4.43;;;;;;;;;;5045668;28;20175;-64
2022/01/18 02:51:05;;;;;;;21.47;5.33;;;;;;;;;;5043932;28;20178;-64
2022/01/18 02:53:31;;;;;;;17.37;4.73;;;;;;;;;;5045070;28;20221;-65
2022/01/18 02:55:57;;;;;;;18.23;5.70;;;;;;;;;;5044084;28;20211;-65
2022/01/18 02:58:27;;;;;;;13.20;4.23;;;;;;;;;;5044959;28;20175;-65
2022/01/18 03:03:36;;;;;;;26.17;4.60;;;;;;;;;;5043599;28;20203;-64
2022/01/18 03:06:05;;;;;;;15.87;3.73;;;;;;;;;;5042414;28;20183;-64
2022/01/18 03:08:33;;;;;;;24.33;4.77;;;;;;;;;;5042073;28;20183;-64
2022/01/18 03:10:59;;;;;;;18.20;3.10;;;;;;;;;;5042992;28;20179;-65
2022/01/18 03:13:25;;;;;;;22.03;5.83;;;;;;;;;;5043000;28;20217;-65
2022/01/18 03:15:51;;;;;;;23.13;5.17;;;;;;;;;;5043162;28;20187;-65
2022/01/18 03:18:17;;;;;;;25.17;6.03;;;;;;;;;;5043087;28;20697;-65
2022/01/18 03:20:43;;;;;;;23.10;5.27;;;;;;;;;;5043995;28;20175;-63
2022/01/18 03:23:14;;;;;;;19.67;4.70;;;;;;;;;;5043044;28;20203;-63
2022/01/18 03:25:53;;;;;;;22.43;5.47;;;;;;;;;;5043909;28;20647;-64
2022/01/18 03:28:19;;;;;;;19.30;4.67;;;;;;;;;;5044617;28;20237;-63
2022/01/18 03:30:53;;;;;;;21.40;5.77;;;;;;;;;;5042169;28;20631;-64
2022/01/18 03:33:20;;;;;;;23.23;5.57;;;;;;;;;;5044134;28;20656;-63
2022/01/18 03:35:48;;;;;;;21.57;5.00;;;;;;;;;;5044194;28;20178;-64
2022/01/18 03:38:14;;;;;;;15.43;5.00;;;;;;;;;;5043672;28;20175;-64
2022/01/18 03:40:40;;;;;;;15.53;4.93;;;;;;;;;;5042724;28;20180;-64
2022/01/18 03:43:10;;;;;;;15.97;4.77;;;;;;;;;;5043223;28;20186;-63
2022/01/18 03:45:41;;;;;;;18.97;4.70;;;;;;;;;;5043183;28;20218;-64
2022/01/18 03:48:11;;;;;;;19.73;4.90;;;;;;;;;;5044028;28;20600;-64
2022/01/18 03:50:37;;;;;;;19.77;4.00;;;;;;;;;;5043745;28;20301;-63
2022/01/18 03:53:03;;;;;;;16.67;3.53;;;;;;;;;;5042369;28;20262;-64
2022/01/18 03:55:29;;;;;;;20.13;3.97;;;;;;;;;;5042031;28;20194;-65
2022/01/18 03:57:56;;;;;;;15.33;3.60;;;;;;;;;;5041851;28;20179;-64
2022/01/18 04:00:23;;;;;;;17.37;4.17;;;;;;;;;;5041693;28;20179;-65
2022/01/18 04:02:50;;;;;;;19.63;4.13;;;;;;;;;;5040861;28;20215;-64
2022/01/18 04:05:16;;;;;;;19.23;4.57;;;;;;;;;;5041484;28;20309;-64
2022/01/18 04:07:43;;;;;;;18.80;4.63;;;;;;;;;;5040278;28;20202;-64
2022/01/18 04:10:09;;;;;;;22.93;4.43;;;;;;;;;;5042224;28;20184;-64
2022/01/18 04:12:35;;;;;;;19.63;4.43;;;;;;;;;;5041904;28;20229;-64
2022/01/18 04:15:06;;;;;;;28.93;4.87;;;;;;;;;;5040432;28;20207;-64
2022/01/18 04:28:35;;;;;;;19.83;6.37;;;;;;;;;;5040659;28;20174;-64
2022/01/18 04:31:02;;;;;;;21.90;5.23;;;;;;;;;;5039620;28;20179;-64
2022/01/18 04:33:28;;;;;;;31.20;5.97;;;;;;;;;;5039890;28;20215;-64
2022/01/18 04:35:54;;;;;;;20.50;4.77;;;;;;;;;;5039026;28;20178;-64
2022/01/18 04:38:20;;;;;;;27.20;5.03;;;;;;;;;;5041763;28;20206;-64
2022/01/18 04:40:47;;;;;;;18.30;4.70;;;;;;;;;;5039511;28;20237;-64
2022/01/18 04:43:37;;;;;;;25.20;5.53;;;;;;;;;;5040888;28;20639;-64
2022/01/18 04:48:48;;;;;;;23.63;5.13;;;;;;;;;;5040752;28;20243;-64
2022/01/18 04:51:14;;;;;;;22.10;5.30;;;;;;;;;;5039961;28;20186;-64
2022/01/18 04:53:43;;;;;;;29.60;5.90;;;;;;;;;;5041185;28;20215;-63
2022/01/18 04:56:11;;;;;;;25.10;6.87;;;;;;;;;;5044133;28;20160;-63
2022/01/18 04:58:37;;;;;;;23.93;6.60;;;;;;;;;;5043580;28;20313;-65
2022/01/18 05:01:04;;;;;;;29.67;6.57;;;;;;;;;;5043233;28;20178;-64
2022/01/18 05:03:31;;;;;;;29.57;6.30;;;;;;;;;;5042363;28;20191;-64
2022/01/18 05:06:03;;;;;;;25.70;6.03;;;;;;;;;;5041832;28;20186;-64
2022/01/18 05:08:29;;;;;;;30.17;5.63;;;;;;;;;;5044034;28;20162;-65
2022/01/18 05:10:57;;;;;;;23.50;6.53;;;;;;;;;;5043920;28;20254;-64
2022/01/18 05:16:01;;;;;;;29.13;6.83;;;;;;;;;;5043008;28;20547;-63
2022/01/18 05:21:17;;;;;;;29.77;7.33;;;;;;;;;;5042897;28;20175;-64
2022/01/18 05:23:43;;;;;;;21.97;5.93;;;;;;;;;;5040314;28;20206;-64
2022/01/18 05:26:09;;;;;;;27.50;6.90;;;;;;;;;;5040631;28;20183;-64
2022/01/18 05:28:35;;;;;;;22.73;6.93;;;;;;;;;;5040393;28;20206;-64
2022/01/18 05:31:01;;;;;;;27.73;6.77;;;;;;;;;;5041039;28;20176;-64
2022/01/18 05:33:27;;;;;;;32.10;8.17;;;;;;;;;;5044576;28;20210;-64
2022/01/18 05:35:54;;;;;;;26.93;6.93;;;;;;;;;;5047108;28;20206;-64
2022/01/18 05:38:20;;;;;;;22.67;7.17;;;;;;;;;;5043624;28;20258;-64
2022/01/18 05:40:46;;;;;;;29.20;7.87;;;;;;;;;;5043157;28;20214;-64
2022/01/18 05:43:12;;;;;;;33.53;7.50;;;;;;;;;;5046422;28;20190;-64
2022/01/18 05:45:38;;;;;;;24.63;7.20;;;;;;;;;;5046748;28;20266;-64
2022/01/18 05:48:04;;;;;;;26.53;7.80;;;;;;;;;;5044961;28;20541;-64
2022/01/18 05:50:30;;;;;;;20.80;7.27;;;;;;;;;;5044363;28;20179;-64
2022/01/18 05:52:56;;;;;;;31.33;7.77;;;;;;;;;;5044065;28;20727;-63
2022/01/18 05:55:22;;;;;;;25.50;8.27;;;;;;;;;;5043793;28;20227;-64
2022/01/18 05:57:48;;;;;;;33.70;8.53;;;;;;;;;;5043661;28;20210;-64
2022/01/18 06:00:20;;;;;;;24.53;8.90;;;;;;;;;;5044987;28;20179;-64
2022/01/18 06:08:00;;;;;;;32.40;9.43;;;;;;;;;;5043781;28;20218;-64
2022/01/18 06:10:27;;;;;;;25.80;9.30;;;;;;;;;;5042582;28;20179;-64
2022/01/18 06:12:53;;;;;;;33.73;9.07;;;;;;;;;;5042780;28;20297;-64
2022/01/18 06:15:19;;;;;;;24.70;8.23;;;;;;;;;;5041929;28;20199;-64
2022/01/18 06:17:45;;;;;;;23.63;8.87;;;;;;;;;;5042802;28;20186;-64
2022/01/18 06:20:12;;;;;;;21.67;8.47;;;;;;;;;;5043541;28;20175;-65
2022/01/18 06:22:38;;;;;;;26.77;9.37;;;;;;;;;;5043004;28;20643;-65
2022/01/18 06:25:04;;;;;;;21.37;8.30;;;;;;;;;;5044438;28;20222;-64
2022/01/18 06:27:30;;;;;;;31.40;9.87;;;;;;;;;;5042210;28;20234;-64
2022/01/18 06:32:40;;;;;;;25.20;10.40;;;;;;;;;;5033829;28;20686;-66
2022/01/18 06:35:08;;;;;;;34.73;10.13;;;;;;;;;;5050416;28;20575;-67
2022/01/18 06:37:34;;;;;;;29.57;10.30;;;;;;;;;;5035254;28;20175;-66
2022/01/18 06:40:03;;;;;;;26.13;9.47;;;;;;;;;;5035310;28;20266;-67
2022/01/18 06:42:29;;;;;;;35.30;10.43;;;;;;;;;;5015385;28;20172;-67
2022/01/18 06:44:55;;;;;;;30.33;10.70;;;;;;;;;;5030508;28;20191;-67
2022/01/18 06:47:21;;;;;;;26.30;10.50;;;;;;;;;;5030487;28;20667;-67
2022/01/18 06:49:47;;;;;;;37.20;11.80;;;;;;;;;;5015638;28;20632;-66
2022/01/18 06:52:13;;;;;;;33.03;11.50;;;;;;;;;;5014909;28;20204;-67
2022/01/18 06:54:39;;;;;;;37.77;12.37;;;;;;;;;;5030260;28;20776;-66
2022/01/18 06:57:05;;;;;;;29.47;12.57;;;;;;;;;;5030327;28;20639;-66
2022/01/18 06:59:31;;;;;;;32.13;12.33;;;;;;;;;;5030302;28;20257;-67
2022/01/18 07:01:57;;;;;;;35.90;12.20;;;;;;;;;;5030176;28;20250;-67
2022/01/18 07:04:23;;;;;;;34.83;12.80;;;;;;;;;;5030118;28;20644;-66
2022/01/18 07:06:49;;;;;;;27.83;11.73;;;;;;;;;;5014907;28;20714;-66
2022/01/18 07:09:22;;;;;;;28.73;12.50;;;;;;;;;;5014794;28;20184;-67
2022/01/18 07:11:48;;;;;;;25.77;12.40;;;;;;;;;;5014694;28;20734;-67
2022/01/18 07:14:14;;;;;;;31.27;13.17;;;;;;;;;;5015051;28;20172;-66
2022/01/18 07:16:40;;;;;;;34.97;14.13;;;;;;;;;;5014060;28;20182;-66
2022/01/18 07:19:06;;;;;;;32.10;13.23;;;;;;;;;;5014711;28;20262;-66
2022/01/18 07:21:32;;;;;;;38.30;13.93;;;;;;;;;;5014568;28;20199;-66
2022/01/18 07:24:04;;;;;;;34.13;14.27;;;;;;;;;;5014748;28;20176;-66
2022/01/18 07:26:31;;;;;;;35.70;13.00;;;;;;;;;;5029827;28;20598;-66
2022/01/18 07:28:57;;;;;;;31.23;12.60;;;;;;;;;;5014542;28;20766;-66
2022/01/18 07:31:23;;;;;;;37.70;14.23;;;;;;;;;;5014451;28;20220;-66
2022/01/18 07:33:49;;;;;;;35.37;14.33;;;;;;;;;;5014775;28;20199;-66
2022/01/18 07:36:15;;;;;;;34.83;14.40;;;;;;;;;;5014973;28;20183;-67
2022/01/18 07:38:41;;;;;;;36.60;13.97;;;;;;;;;;5014761;28;20175;-66
2022/01/18 07:41:07;;;;;;;40.07;14.03;;;;;;;;;;5014610;28;20195;-66
2022/01/18 07:43:33;;;;;;;41.20;14.97;;;;;;;;;;5014120;28;20210;-66
2022/01/18 07:45:59;;;;;;;40.60;15.83;;;;;;;;;;5029340;28;20194;-66
2022/01/18 07:48:25;;;;;;;41.53;15.27;;;;;;;;;;5014254;28;20176;-66
2022/01/18 07:50:51;;;;;;;37.00;16.10;;;;;;;;;;5014344;28;20203;-65
2022/01/18 07:53:18;;;;;;;35.83;15.77;;;;;;;;;;5029185;28;20200;-66
2022/01/18 07:55:44;;;;;;;37.77;15.07;;;;;;;;;;5014327;28;20176;-66
2022/01/18 07:58:10;;;;;;;43.83;16.20;;;;;;;;;;5029162;28;20187;-67
2022/01/18 08:00:36;;;;;;;42.43;17.43;;;;;;;;;;5028990;28;20200;-66
2022/01/18 08:03:02;;;;;;;39.77;18.13;;;;;;;;;;5013883;28;20188;-66
2022/01/18 08:05:28;;;;;;;43.67;18.67;;;;;;;;;;5013840;28;20648;-67
2022/01/18 08:07:54;;;;;;;41.57;17.53;;;;;;;;;;5014332;28;20189;-66
2022/01/18 08:10:21;;;;;;;43.17;19.53;;;;;;;;;;5028931;28;20722;-66
2022/01/18 08:12:47;;;;;;;43.97;19.93;;;;;;;;;;5013675;28;20195;-67
2022/01/18 08:15:20;;;;;;;44.47;21.10;;;;;;;;;;5028927;28;20536;-67
2022/01/18 08:17:49;;;;;;;42.17;20.33;;;;;;;;;;5014094;28;20159;-66
2022/01/18 08:20:15;;;;;;;52.23;23.27;;;;;;;;;;5028842;28;20183;-66
2022/01/18 08:22:45;;;;;;;50.80;22.43;;;;;;;;;;5013657;28;20183;-67
2022/01/18 08:25:12;;;;;;;49.53;19.60;;;;;;;;;;5029310;28;20190;-67
2022/01/18 08:27:39;;;;;;;50.53;18.00;;;;;;;;;;5028750;28;20188;-67
2022/01/18 08:30:07;;;;;;;40.57;18.53;;;;;;;;;;5028657;28;20183;-66
2022/01/18 08:32:33;;;;;;;39.80;19.77;;;;;;;;;;5013483;28;20243;-66
2022/01/18 08:34:59;;;;;;;41.47;19.97;;;;;;;;;;5028649;28;20634;-66
2022/01/18 08:37:25;;;;;;;41.53;18.53;;;;;;;;;;5013698;28;20203;-66
2022/01/18 08:39:50;;;;;;;42.40;20.23;;;;;;;;;;5028591;28;20200;-67
2022/01/18 08:42:16;;;;;;;56.23;24.07;;;;;;;;;;5028519;28;20312;-66
2022/01/18 08:44:43;;;;;;;54.93;20.03;;;;;;;;;;5028600;28;20678;-66
2022/01/18 08:47:13;;;;;;;45.47;19.90;;;;;;;;;;5013408;28;20663;-66
2022/01/18 08:49:39;;;;;;;50.03;19.23;;;;;;;;;;5013366;28;20183;-66
2022/01/18 08:52:05;;;;;;;44.20;18.90;;;;;;;;;;5013240;28;20652;-66
2022/01/18 08:54:32;;;;;;;50.27;20.33;;;;;;;;;;5013434;28;20674;-67
2022/01/18 08:56:58;;;;;;;41.27;19.47;;;;;;;;;;5013270;28;20175;-67
2022/01/18 08:59:24;;;;;;;36.90;17.63;;;;;;;;;;5013235;28;20180;-66
2022/01/18 09:01:51;;;;;;;42.07;18.33;;;;;;;;;;5013078;28;20203;-66
2022/01/18 09:04:16;;;;;;;41.63;18.10;;;;;;;;;;5013138;28;20644;-66
2022/01/18 09:06:46;;;;;;;35.40;18.30;;;;;;;;;;5013146;28;20185;-66
2022/01/18 09:09:15;;;;;;;36.57;18.20;;;;;;;;;;5013063;28;20553;-66
2022/01/18 09:11:41;;;;;;;44.57;18.13;;;;;;;;;;5013132;28;20192;-66
2022/01/18 09:14:07;;;;;;;36.33;18.27;;;;;;;;;;5028188;28;20175;-66
2022/01/18 09:16:33;;;;;;;43.43;17.87;;;;;;;;;;5028146;28;20228;-66
2022/01/18 09:18:58;;;;;;;36.73;18.20;;;;;;;;;;5028176;28;20201;-66
2022/01/18 09:21:26;;;;;;;43.17;17.80;;;;;;;;;;5012940;28;20219;-66
2022/01/18 09:23:52;;;;;;;42.23;18.33;;;;;;;;;;5028261;28;20184;-66
2022/01/18 09:26:18;;;;;;;34.70;16.90;;;;;;;;;;5013230;28;20234;-66
2022/01/18 09:28:44;;;;;;;41.10;17.70;;;;;;;;;;5013161;28;20194;-66
2022/01/18 09:31:10;;;;;;;35.90;16.53;;;;;;;;;;5027782;28;20315;-67
2022/01/18 09:33:37;;;;;;;34.60;17.37;;;;;;;;;;5012807;28;20321;-66
2022/01/18 09:36:03;;;;;;;43.10;17.17;;;;;;;;;;5013450;28;20172;-66
2022/01/18 09:38:29;;;;;;;50.83;17.13;;;;;;;;;;5012940;28;20315;-66
2022/01/18 09:40:56;;;;;;;32.70;16.93;;;;;;;;;;5030999;28;20240;-66
2022/01/18 09:43:22;;;;;;;36.47;17.87;;;;;;;;;;5031681;28;20213;-66
2022/01/18 09:45:48;;;;;;;35.17;17.83;;;;;;;;;;5031446;28;20219;-67
2022/01/18 09:48:14;;;;;;;38.00;16.80;;;;;;;;;;5031418;28;20211;-67
2022/01/18 09:50:43;;;;;;;41.47;21.60;;;;;;;;;;5031596;28;20621;-67
2022/01/18 09:53:10;;;;;;;42.60;21.67;;;;;;;;;;5031282;28;20342;-67
2022/01/18 09:55:37;;;;;;;47.27;21.53;;;;;;;;;;5016098;28;20203;-66
2022/01/18 09:58:06;;;;;;;45.33;19.80;;;;;;;;;;5016451;28;20176;-66
2022/01/18 10:00:32;;;;;;;45.87;21.27;;;;;;;;;;5015992;28;20257;-66
2022/01/18 10:02:59;;;;;;;47.87;21.57;;;;;;;;;;5015940;28;20262;-66
2022/01/18 10:05:28;;;;;;;47.87;20.70;;;;;;;;;;5016441;28;20176;-66
2022/01/18 10:07:55;;;;;;;37.17;19.93;;;;;;;;;;5031009;28;20648;-66
2022/01/18 10:10:21;;;;;;;41.03;21.13;;;;;;;;;;5015852;28;20579;-66
2022/01/18 10:12:56;;;;;;;37.77;18.57;;;;;;;;;;5015951;28;20246;-66
2022/01/18 10:15:22;;;;;;;34.17;16.47;;;;;;;;;;5016077;28;20184;-66
2022/01/18 10:17:48;;;;;;;36.67;17.57;;;;;;;;;;5016159;28;20207;-66
2022/01/18 10:20:19;;;;;;;45.17;18.23;;;;;;;;;;5030831;28;20182;-66
2022/01/18 10:22:48;;;;;;;34.50;16.77;;;;;;;;;;5015658;28;20165;-66
2022/01/18 10:25:18;;;;;;;35.20;17.37;;;;;;;;;;5016118;28;20180;-67
2022/01/18 10:27:47;;;;;;;35.23;16.10;;;;;;;;;;5015671;28;20191;-66
2022/01/18 10:30:20;;;;;;;31.67;14.33;;;;;;;;;;5015698;28;20172;-66
2022/01/18 10:33:01;;;;;;;37.27;16.23;;;;;;;;;;5015521;28;20275;-66
2022/01/18 10:35:27;;;;;;;30.10;17.07;;;;;;;;;;5015639;28;20168;-66
2022/01/18 10:37:53;;;;;;;33.60;16.80;;;;;;;;;;5030505;28;20300;-66
2022/01/18 10:40:19;;;;;;;31.03;16.13;;;;;;;;;;5015227;28;20682;-66
2022/01/18 10:42:48;;;;;;;33.60;17.57;;;;;;;;;;5015671;28;20184;-66
2022/01/18 10:45:30;;;;;;;41.27;18.53;;;;;;;;;;5015041;28;20714;-66
2022/01/18 10:48:00;;;;;;;40.27;17.73;;;;;;;;;;5015674;28;20473;-66
2022/01/18 10:50:30;;;;;;;41.13;19.23;;;;;;;;;;5030239;28;20231;-66
2022/01/18 10:53:09;;;;;;;36.93;16.60;;;;;;;;;;5014745;28;20540;-66
2022/01/18 10:55:35;;;;;;;33.53;17.27;;;;;;;;;;5031040;28;20750;-67
2022/01/18 10:58:09;;;;;;;33.33;16.87;;;;;;;;;;5034066;28;20203;-66
2022/01/18 11:00:35;;;;;;;38.93;15.40;;;;;;;;;;5019115;28;20192;-66
2022/01/18 11:03:04;;;;;;;31.17;16.77;;;;;;;;;;5018975;28;20207;-66
2022/01/18 11:05:31;;;;;;;35.40;14.83;;;;;;;;;;5016786;28;20702;-66
2022/01/18 11:08:02;;;;;;;33.83;14.27;;;;;;;;;;5030211;28;20184;-67
2022/01/18 11:10:31;;;;;;;25.97;13.57;;;;;;;;;;5014888;28;20263;-66
2022/01/18 11:13:06;;;;;;;30.60;14.30;;;;;;;;;;5014727;28;20282;-67
2022/01/18 11:15:35;;;;;;;27.13;13.50;;;;;;;;;;5014616;28;20163;-66
2022/01/18 11:18:04;;;;;;;27.30;12.27;;;;;;;;;;5029826;28;20176;-66
2022/01/18 11:20:32;;;;;;;34.20;16.60;;;;;;;;;;5029783;28;20249;-66
2022/01/18 11:22:58;;;;;;;25.70;15.77;;;;;;;;;;5029558;28;20271;-66
2022/01/18 11:25:25;;;;;;;29.23;16.20;;;;;;;;;;5029387;28;20652;-66
2022/01/18 11:27:52;;;;;;;29.23;16.83;;;;;;;;;;5014163;28;20271;-66
2022/01/18 11:30:20;;;;;;;28.50;14.43;;;;;;;;;;5029122;28;20190;-66
2022/01/18 11:32:46;;;;;;;32.00;15.13;;;;;;;;;;5014397;28;20543;-67
2022/01/18 11:35:19;;;;;;;28.93;15.13;;;;;;;;;;5029177;28;20179;-66
2022/01/18 11:38:05;;;;;;;31.57;16.60;;;;;;;;;;5029209;28;20176;-66
2022/01/18 11:40:46;;;;;;;27.57;15.03;;;;;;;;;;5029534;28;20635;-66
2022/01/18 11:43:12;;;;;;;31.70;14.87;;;;;;;;;;5014142;28;20552;-66
2022/01/18 11:45:40;;;;;;;25.03;13.93;;;;;;;;;;5014075;28;20180;-67
2022/01/18 11:48:17;;;;;;;31.73;14.43;;;;;;;;;;5014312;28;20184;-67
2022/01/18 11:50:43;;;;;;;22.70;13.30;;;;;;;;;;5013829;28;20723;-67
2022/01/18 11:53:26;;;;;;;25.67;12.83;;;;;;;;;;5029011;28;20223;-67
2022/01/18 11:55:53;;;;;;;26.80;13.33;;;;;;;;;;5014605;28;20160;-67
2022/01/18 11:58:21;;;;;;;23.90;12.97;;;;;;;;;;5014065;28;20172;-66
2022/01/18 12:00:49;;;;;;;22.97;11.77;;;;;;;;;;5014121;28;20196;-68
2022/01/18 12:03:17;;;;;;;26.83;13.53;;;;;;;;;;5013678;28;20686;-66
2022/01/18 12:05:43;;;;;;;25.00;12.10;;;;;;;;;;5028677;28;20222;-66
2022/01/18 12:08:09;;;;;;;25.00;12.43;;;;;;;;;;5028578;28;20199;-66
2022/01/18 12:10:42;;;;;;;20.50;10.53;;;;;;;;;;5013358;28;20246;-66
2022/01/18 12:13:13;;;;;;;23.73;10.67;;;;;;;;;;5013575;28;20220;-66
2022/01/18 12:15:47;;;;;;;21.13;10.10;;;;;;;;;;5013768;28;20156;-66
2022/01/18 12:18:17;;;;;;;21.83;9.73;;;;;;;;;;5028782;28;20558;-66
2022/01/18 12:20:44;;;;;;;17.33;9.20;;;;;;;;;;5013574;28;20564;-65
2022/01/18 12:23:12;;;;;;;20.43;9.30;;;;;;;;;;5028764;28;20186;-66
2022/01/18 12:34:28;;;;;;;25.47;10.57;;;;;;;;;;5013490;28;20275;-65
2022/01/18 12:37:07;;;;;;;21.90;10.33;;;;;;;;;;5028599;28;20262;-66
2022/01/18 12:39:57;;;;;;;24.03;10.47;;;;;;;;;;5013427;28;20616;-66
2022/01/18 12:45:01;;;;;;;20.53;9.90;;;;;;;;;;5013897;28;20230;-66
2022/01/18 12:47:27;;;;;;;22.33;8.97;;;;;;;;;;5013282;28;20207;-66
2022/01/18 12:49:53;;;;;;;21.43;9.73;;;;;;;;;;5028528;28;20644;-66
2022/01/18 12:52:20;;;;;;;17.70;8.47;;;;;;;;;;5013243;28;20243;-66
2022/01/18 12:54:48;;;;;;;20.50;7.90;;;;;;;;;;5028629;28;20176;-65
2022/01/18 12:57:14;;;;;;;21.53;8.43;;;;;;;;;;5028650;28;20176;-66
2022/01/18 12:59:59;;;;;;;17.27;8.43;;;;;;;;;;5013147;28;20662;-66
2022/01/18 13:02:26;;;;;;;18.67;7.83;;;;;;;;;;5028267;28;20294;-66
2022/01/18 13:04:56;;;;;;;21.97;7.63;;;;;;;;;;5028316;28;20191;-66
2022/01/18 13:07:22;;;;;;;24.57;8.00;;;;;;;;;;5013167;28;20184;-66
2022/01/18 13:09:58;;;;;;;14.70;5.70;;;;;;;;;;5013329;28;20180;-66
2022/01/18 13:12:34;;;;;;;16.37;7.00;;;;;;;;;;5012944;28;20699;-66
2022/01/18 13:15:03;;;;;;;16.60;6.93;;;;;;;;;;5014315;28;20182;-66
2022/01/18 13:23:32;;;;;;;19.23;7.23;;;;;;;;;;5017048;28;20545;-66
2022/01/18 13:26:00;;;;;;;26.37;11.10;;;;;;;;;;5032028;28;20182;-66
2022/01/18 13:28:36;;;;;;;26.53;11.23;;;;;;;;;;5032269;28;20604;-66
2022/01/18 13:31:15;;;;;;;19.90;9.03;;;;;;;;;;5016424;28;20223;-66
2022/01/18 13:33:51;;;;;;;33.60;14.93;;;;;;;;;;5031766;28;20234;-66
2022/01/18 13:36:17;;;;;;;25.67;10.70;;;;;;;;;;5016755;28;20234;-66
2022/01/18 13:38:43;;;;;;;25.27;9.97;;;;;;;;;;5031689;28;20184;-66
2022/01/18 13:41:09;;;;;;;20.33;9.83;;;;;;;;;;5016536;28;20206;-66
2022/01/18 13:43:35;;;;;;;21.43;9.70;;;;;;;;;;5016927;28;20184;-66
2022/01/18 13:46:01;;;;;;;26.03;10.00;;;;;;;;;;5031612;28;20191;-66
2022/01/18 13:48:32;;;;;;;25.63;9.43;;;;;;;;;;5031533;28;20566;-66
2022/01/18 13:50:58;;;;;;;22.50;9.33;;;;;;;;;;5016217;28;20195;-67
2022/01/18 13:53:31;;;;;;;18.90;8.73;;;;;;;;;;5016315;28;20298;-67
2022/01/18 13:56:03;;;;;;;26.37;11.03;;;;;;;;;;5048529;22;20617;-62
2022/01/18 13:58:34;;;;;;;24.47;9.40;;;;;;;;;;5017784;28;20180;-63
2022/01/18 14:01:13;;;;;;;24.27;10.17;;;;;;;;;;5020377;28;20172;-63
2022/01/18 14:03:40;;;;;;;23.17;9.43;;;;;;;;;;5019538;28;20276;-63
2022/01/18 14:06:06;;;;;;;19.10;8.23;;;;;;;;;;5021945;28;20253;-63
2022/01/18 14:08:41;;;;;;;24.20;8.60;;;;;;;;;;5022235;28;20186;-63
2022/01/18 14:11:08;;;;;;;22.60;10.73;;;;;;;;;;5025373;28;20588;-64
2022/01/18 14:13:38;;;;;;;18.13;8.50;;;;;;;;;;5027109;28;20211;-63
2022/01/18 14:16:19;;;;;;;23.30;9.77;;;;;;;;;;5023057;28;20198;-63
2022/01/18 14:18:51;;;;;;;19.53;8.77;;;;;;;;;;5023120;28;20159;-63
2022/01/18 14:21:31;;;;;;;21.73;8.67;;;;;;;;;;5023840;28;20593;-63
2022/01/18 14:24:07;;;;;;;25.87;8.93;;;;;;;;;;5021091;28;20184;-63
2022/01/18 14:26:35;;;;;;;25.50;9.80;;;;;;;;;;5023481;28;20206;-63
2022/01/18 14:29:01;;;;;;;18.83;7.90;;;;;;;;;;5021832;28;20186;-63
2022/01/18 14:31:27;;;;;;;22.03;7.87;;;;;;;;;;5023504;28;20533;-63
2022/01/18 14:33:53;;;;;;;23.37;11.70;;;;;;;;;;5023340;28;20289;-63
2022/01/18 14:36:19;;;;;;;23.47;10.30;;;;;;;;;;5023963;28;20207;-63
2022/01/18 14:38:45;;;;;;;21.47;7.63;;;;;;;;;;5027811;28;20171;-63
2022/01/18 14:41:21;;;;;;;23.23;8.83;;;;;;;;;;5024478;28;20191;-63
2022/01/18 14:43:47;;;;;;;16.00;6.63;;;;;;;;;;5023697;28;20187;-63
2022/01/18 14:46:36;;;;;;;17.70;5.57;;;;;;;;;;5025182;28;20278;-63
2022/01/18 14:49:02;;;;;;;14.30;5.87;;;;;;;;;;5024394;28;20164;-64
2022/01/18 14:51:29;;;;;;;18.83;6.00;;;;;;;;;;5025297;28;20184;-64
2022/01/18 14:53:55;;;;;;;15.13;5.33;;;;;;;;;;5024582;28;20221;-63
2022/01/18 14:56:21;;;;;;;20.53;5.93;;;;;;;;;;5024081;28;20294;-63
2022/01/18 14:58:47;;;;;;;21.17;6.13;;;;;;;;;;5025325;28;20187;-63
2022/01/18 15:01:13;;;;;;;15.50;5.40;;;;;;;;;;5023984;28;20179;-63
2022/01/18 15:03:39;;;;;;;16.23;5.70;;;;;;;;;;5024811;28;20175;-63
2022/01/18 15:06:05;;;;;;;16.43;6.03;;;;;;;;;;5025783;28;20223;-64
2022/01/18 15:08:31;;;;;;;14.47;5.97;;;;;;;;;;5025645;28;20637;-65
2022/01/18 15:10:57;;;;;;;14.73;5.73;;;;;;;;;;5023504;28;20204;-63
2022/01/18 15:13:23;;;;;;;16.80;6.30;;;;;;;;;;5025564;28;20203;-64
2022/01/18 15:15:49;;;;;;;15.20;6.80;;;;;;;;;;5024883;28;20219;-64
2022/01/18 15:18:15;;;;;;;16.77;6.77;;;;;;;;;;5024997;28;20186;-63
2022/01/18 15:20:41;;;;;;;20.67;7.10;;;;;;;;;;5024991;28;20552;-63
2022/01/18 15:23:08;;;;;;;14.63;6.43;;;;;;;;;;5024296;28;20180;-64
2022/01/18 15:25:34;;;;;;;20.00;7.33;;;;;;;;;;5025734;28;20298;-64
2022/01/18 15:28:00;;;;;;;18.17;7.63;;;;;;;;;;5026054;28;20596;-63
2022/01/18 15:30:29;;;;;;;20.80;7.90;;;;;;;;;;5025197;28;20222;-63
2022/01/18 15:32:56;;;;;;;15.17;7.97;;;;;;;;;;5023390;28;20235;-63
2022/01/18 15:35:22;;;;;;;24.20;8.77;;;;;;;;;;5019346;28;20183;-62
2022/01/18 15:37:48;;;;;;;25.07;11.27;;;;;;;;;;5018950;28;20182;-63
2022/01/18 15:40:14;;;;;;;26.67;10.20;;;;;;;;;;5020345;28;20199;-63
2022/01/18 15:42:41;;;;;;;30.47;11.10;;;;;;;;;;5022574;28;20180;-63
2022/01/18 15:45:07;;;;;;;26.60;12.70;;;;;;;;;;5023119;28;20187;-63
2022/01/18 15:47:33;;;;;;;27.67;11.63;;;;;;;;;;5023752;28;20180;-63
2022/01/18 15:49:59;;;;;;;28.27;12.63;;;;;;;;;;5024658;28;20176;-63
2022/01/18 15:52:26;;;;;;;33.00;14.87;;;;;;;;;;5023731;28;20263;-63